createdAt,value
2022-10-22T00:02:27.680Z,65.96
2022-10-22T00:04:57.072Z,65.42
2022-10-22T00:07:24.720Z,65.25
2022-10-22T00:09:51.592Z,65.16
2022-10-22T00:12:18.685Z,65.62
2022-10-22T00:14:45.873Z,65.45
2022-10-22T00:17:12.588Z,65.25
2022-10-22T00:19:40.699Z,65.03
2022-10-22T00:22:07.758Z,65.08
2022-10-22T00:24:35.631Z,65.03
2022-10-22T00:27:03.156Z,64.98
2022-10-22T00:29:31.316Z,64.87
2022-10-22T00:31:58.335Z,65.06
2022-10-22T00:34:25.794Z,64.77
2022-10-22T00:36:54.316Z,64.90
2022-10-22T00:39:23.831Z,64.37
2022-10-22T00:41:52.185Z,64.64
2022-10-22T00:44:56.776Z,64.56
2022-10-22T00:47:25.319Z,64.48
2022-10-22T00:49:53.821Z,64.51
2022-10-22T00:52:22.937Z,64.50
2022-10-22T00:54:50.917Z,64.54
2022-10-22T00:57:19.611Z,64.45
2022-10-22T00:59:47.064Z,64.83
2022-10-22T01:02:14.135Z,64.83
2022-10-22T01:04:40.791Z,64.61
2022-10-22T01:07:07.513Z,64.96
2022-10-22T01:09:50.135Z,64.71
2022-10-22T01:12:23.207Z,64.58
2022-10-22T01:15:07.765Z,64.64
2022-10-22T01:17:39.712Z,64.91
2022-10-22T01:20:18.427Z,65.25
2022-10-22T01:22:59.206Z,65.27
2022-10-22T01:25:34.158Z,65.52
2022-10-22T01:28:09.484Z,65.86
2022-10-22T01:30:39.736Z,65.81
2022-10-22T01:33:10.374Z,65.96
2022-10-22T01:35:42.883Z,66.45
2022-10-22T01:38:13.007Z,66.24
2022-10-22T01:40:41.636Z,66.43
2022-10-22T01:43:10.325Z,66.34
2022-10-22T01:45:42.439Z,66.13
2022-10-22T01:48:22.091Z,65.98
2022-10-22T01:51:02.096Z,65.80
2022-10-22T01:53:34.386Z,65.55
2022-10-22T01:56:29.577Z,65.25
2022-10-22T01:59:03.658Z,65.40
2022-10-22T02:01:41.367Z,65.32
2022-10-22T02:04:15.715Z,64.97
2022-10-22T02:06:44.484Z,65.55
2022-10-22T02:09:14.764Z,65.62
2022-10-22T02:11:42.853Z,65.78
2022-10-22T02:14:12.634Z,65.73
2022-10-22T02:16:43.873Z,65.70
2022-10-22T02:19:16.925Z,65.37
2022-10-22T02:21:44.583Z,65.21
2022-10-22T02:24:11.301Z,65.09
2022-10-22T02:26:41.848Z,65.26
2022-10-22T02:29:14.352Z,65.58
2022-10-22T02:31:46.127Z,65.56
2022-10-22T02:34:19.349Z,65.54
2022-10-22T02:36:49.712Z,65.83
2022-10-22T02:39:19.121Z,65.55
2022-10-22T02:41:45.747Z,65.74
2022-10-22T02:44:12.561Z,65.82
2022-10-22T02:46:40.526Z,65.58
2022-10-22T02:49:08.583Z,65.50
2022-10-22T02:51:35.351Z,65.10
2022-10-22T02:54:02.027Z,65.33
2022-10-22T02:56:29.077Z,65.39
2022-10-22T02:58:55.711Z,65.10
2022-10-22T03:01:22.692Z,65.13
2022-10-22T03:03:49.505Z,64.83
2022-10-22T03:06:18.040Z,64.86
2022-10-22T03:08:44.764Z,65.13
2022-10-22T03:11:11.525Z,65.30
2022-10-22T03:13:38.187Z,65.31
2022-10-22T03:16:05.543Z,64.66
2022-10-22T03:18:32.283Z,64.94
2022-10-22T03:21:07.794Z,65.12
2022-10-22T03:23:36.126Z,64.93
2022-10-22T03:26:03.679Z,65.23
2022-10-22T03:28:30.402Z,65.03
2022-10-22T03:30:57.017Z,64.94
2022-10-22T03:33:23.734Z,64.81
2022-10-22T03:35:50.486Z,64.67
2022-10-22T03:38:17.342Z,64.47
2022-10-22T03:40:46.179Z,64.82
2022-10-22T03:43:13.071Z,64.88
2022-10-22T03:45:39.716Z,64.42
2022-10-22T03:48:06.498Z,64.87
2022-10-22T03:50:33.259Z,64.97
2022-10-22T03:52:59.975Z,64.97
2022-10-22T03:55:26.901Z,65.12
2022-10-22T03:57:54.897Z,64.88
2022-10-22T04:00:21.698Z,65.00
2022-10-22T04:02:48.311Z,65.07
2022-10-22T04:07:46.567Z,64.79
2022-10-22T04:10:13.261Z,64.80
2022-10-22T04:12:39.918Z,65.20
2022-10-22T04:15:09.586Z,65.18
2022-10-22T04:17:37.125Z,65.72
2022-10-22T04:20:05.126Z,65.64
2022-10-22T04:22:33.521Z,65.68
2022-10-22T04:25:00.317Z,66.10
2022-10-22T04:27:29.887Z,66.12
2022-10-22T04:29:56.639Z,65.56
2022-10-22T04:32:24.767Z,65.72
2022-10-22T04:34:51.391Z,65.40
2022-10-22T04:37:18.089Z,65.74
2022-10-22T04:39:44.831Z,65.65
2022-10-22T04:42:12.563Z,65.54
2022-10-22T04:44:39.277Z,65.81
2022-10-22T04:47:06.000Z,65.58
2022-10-22T04:49:34.086Z,66.10
2022-10-22T04:52:00.749Z,65.56
2022-10-22T04:54:30.512Z,65.59
2022-10-22T04:56:59.907Z,65.55
2022-10-22T04:59:26.656Z,65.50
2022-10-22T05:01:53.331Z,65.80
2022-10-22T05:04:19.975Z,65.54
2022-10-22T05:06:48.062Z,65.99
2022-10-22T05:09:17.264Z,65.83
2022-10-22T05:11:46.248Z,65.74
2022-10-22T05:14:13.266Z,65.67
2022-10-22T05:16:40.084Z,65.91
2022-10-22T05:19:07.739Z,65.61
2022-10-22T05:21:34.941Z,65.68
2022-10-22T05:24:04.005Z,65.62
2022-10-22T05:26:30.528Z,65.60
2022-10-22T05:28:57.381Z,65.71
2022-10-22T05:31:24.184Z,65.83
2022-10-22T05:33:50.943Z,65.35
2022-10-22T05:36:19.450Z,65.55
2022-10-22T05:38:46.418Z,65.38
2022-10-22T05:41:16.280Z,65.42
2022-10-22T05:43:43.328Z,65.52
2022-10-22T05:46:11.835Z,65.45
2022-10-22T05:48:39.217Z,65.36
2022-10-22T05:51:07.581Z,65.52
2022-10-22T05:53:35.944Z,65.57
2022-10-22T05:56:04.455Z,65.26
2022-10-22T05:58:32.941Z,65.64
2022-10-22T06:01:03.631Z,65.54
2022-10-22T06:03:31.783Z,65.46
2022-10-22T06:06:01.637Z,65.57
2022-10-22T06:08:28.926Z,65.48
2022-10-22T06:10:55.644Z,65.57
2022-10-22T06:13:22.905Z,65.42
2022-10-22T06:15:53.446Z,65.58
2022-10-22T06:18:20.423Z,65.41
2022-10-22T06:20:47.649Z,65.55
2022-10-22T06:23:15.255Z,65.65
2022-10-22T06:25:42.005Z,65.97
2022-10-22T06:28:08.685Z,65.97
2022-10-22T06:30:37.261Z,65.76
2022-10-22T06:33:05.403Z,65.86
2022-10-22T06:35:33.311Z,65.65
2022-10-22T06:37:59.998Z,65.93
2022-10-22T06:40:26.789Z,65.74
2022-10-22T06:42:53.493Z,65.80
2022-10-22T06:45:20.285Z,65.70
2022-10-22T06:47:47.657Z,65.83
2022-10-22T06:50:15.933Z,65.96
2022-10-22T06:52:42.597Z,65.91
2022-10-22T06:55:10.297Z,66.13
2022-10-22T06:57:38.207Z,66.13
2022-10-22T07:00:07.084Z,66.27
2022-10-22T07:02:33.768Z,66.53
2022-10-22T07:05:00.557Z,66.41
2022-10-22T07:07:28.679Z,66.68
2022-10-22T07:09:55.337Z,66.59
2022-10-22T07:12:22.212Z,66.53
2022-10-22T07:14:49.052Z,66.76
2022-10-22T07:17:15.785Z,66.44
2022-10-22T07:19:42.482Z,66.60
2022-10-22T07:25:11.335Z,66.27
2022-10-22T07:27:46.034Z,66.49
2022-10-22T07:30:15.147Z,66.06
2022-10-22T07:32:41.869Z,66.33
2022-10-22T07:44:02.239Z,66.81
2022-10-22T07:49:10.313Z,66.60
2022-10-22T07:54:29.645Z,67.56
2022-10-22T07:56:57.552Z,67.61
2022-10-22T07:59:35.086Z,67.31
2022-10-22T08:02:01.997Z,67.21
2022-10-22T08:04:32.769Z,66.95
2022-10-22T08:07:01.035Z,67.31
2022-10-22T08:09:28.106Z,67.08
2022-10-22T08:11:54.980Z,67.08
2022-10-22T08:14:22.285Z,66.95
2022-10-22T08:16:50.584Z,66.62
2022-10-22T08:19:21.287Z,66.84
2022-10-22T08:21:48.611Z,66.66
2022-10-22T08:24:15.475Z,66.63
2022-10-22T08:26:42.738Z,66.27
2022-10-22T08:29:09.842Z,66.51
2022-10-22T08:31:37.221Z,66.65
2022-10-22T08:34:07.440Z,66.42
2022-10-22T08:36:36.276Z,66.50
2022-10-22T08:39:03.209Z,66.33
2022-10-22T08:47:40.560Z,66.14
2022-10-22T08:50:12.010Z,66.23
2022-10-22T08:52:45.781Z,66.09
2022-10-22T08:55:14.407Z,66.14
2022-10-22T08:57:52.302Z,66.48
2022-10-22T09:00:22.004Z,66.67
2022-10-22T09:03:04.091Z,66.85
2022-10-22T09:05:44.200Z,66.69
2022-10-22T09:08:13.846Z,66.55
2022-10-22T09:10:46.362Z,66.41
2022-10-22T09:16:19.298Z,66.93
2022-10-22T09:18:58.945Z,66.65
2022-10-22T09:21:33.222Z,66.42
2022-10-22T09:24:05.577Z,66.62
2022-10-22T09:26:36.237Z,66.43
2022-10-22T09:29:03.844Z,66.47
2022-10-22T09:31:32.061Z,66.59
2022-10-22T09:34:05.766Z,66.82
2022-10-22T09:36:34.496Z,67.18
2022-10-22T09:39:01.610Z,67.02
2022-10-22T09:41:30.137Z,66.99
2022-10-22T09:43:57.621Z,67.23
2022-10-22T09:46:28.003Z,67.11
2022-10-22T09:49:01.929Z,67.30
2022-10-22T09:51:46.305Z,67.29
2022-10-22T09:54:16.810Z,66.88
2022-10-22T09:56:52.030Z,66.87
2022-10-22T09:59:24.574Z,66.69
2022-10-22T10:02:08.373Z,66.30
2022-10-22T10:04:48.207Z,66.26
2022-10-22T10:07:18.499Z,65.86
2022-10-22T10:09:45.706Z,65.35
2022-10-22T10:12:24.763Z,64.78
2022-10-22T10:15:01.623Z,63.65
2022-10-22T10:17:36.402Z,63.54
2022-10-22T10:20:16.594Z,63.29
2022-10-22T10:22:55.034Z,63.12
2022-10-22T10:25:42.109Z,63.16
2022-10-22T10:28:27.862Z,62.62
2022-10-22T10:31:04.903Z,62.50
2022-10-22T10:33:42.628Z,62.38
2022-10-22T10:36:17.214Z,62.07
2022-10-22T10:38:57.493Z,61.10
2022-10-22T10:41:35.141Z,60.70
2022-10-22T10:44:18.245Z,60.92
2022-10-22T10:46:50.012Z,60.96
2022-10-22T10:49:20.465Z,60.46
2022-10-22T10:51:57.086Z,59.94
2022-10-22T10:54:41.228Z,59.97
2022-10-22T10:57:18.176Z,59.88
2022-10-22T11:00:02.739Z,59.83
2022-10-22T11:02:49.216Z,59.71
2022-10-22T11:05:30.680Z,59.73
2022-10-22T11:08:01.599Z,59.75
2022-10-22T11:10:34.406Z,59.43
2022-10-22T11:13:07.980Z,58.96
2022-10-22T11:15:37.909Z,58.67
2022-10-22T11:18:16.807Z,58.07
2022-10-22T11:21:04.608Z,57.77
2022-10-22T11:23:36.646Z,57.77
2022-10-22T11:29:01.730Z,56.81
2022-10-22T11:31:31.765Z,55.88
2022-10-22T11:34:28.520Z,55.80
2022-10-22T11:36:54.932Z,55.28
2022-10-22T11:39:31.990Z,54.87
2022-10-22T11:41:59.334Z,54.51
2022-10-22T11:44:30.359Z,54.00
2022-10-22T11:47:00.052Z,53.61
2022-10-22T11:52:41.777Z,53.64
2022-10-22T11:55:30.695Z,53.88
2022-10-22T11:58:03.777Z,54.66
2022-10-22T12:00:48.161Z,54.04
2022-10-22T12:03:19.658Z,54.01
2022-10-22T12:05:46.811Z,53.91
2022-10-22T12:11:28.004Z,52.79
2022-10-22T12:17:35.604Z,51.94
2022-10-22T12:22:55.756Z,51.70
2022-10-22T12:33:44.013Z,51.49
2022-10-22T12:36:17.029Z,51.04
2022-10-22T12:38:47.841Z,50.77
2022-10-22T12:41:15.490Z,50.90
2022-10-22T12:46:24.365Z,50.62
2022-10-22T12:48:53.695Z,50.84
2022-10-22T12:53:57.414Z,50.96
2022-10-22T12:56:47.014Z,50.67
2022-10-22T13:11:11.229Z,50.50
2022-10-22T13:17:21.804Z,50.04
2022-10-22T13:38:54.044Z,49.92
2022-10-22T13:53:34.765Z,50.95
2022-10-22T13:56:11.851Z,50.91
2022-10-22T13:58:38.913Z,51.00
2022-10-22T14:01:10.497Z,51.22
2022-10-22T14:03:38.251Z,50.76
2022-10-22T14:06:13.093Z,50.76
2022-10-22T14:08:40.339Z,51.06
2022-10-22T14:11:10.075Z,51.09
2022-10-22T14:13:42.521Z,51.24
2022-10-22T14:16:16.597Z,51.20
2022-10-22T14:18:43.922Z,51.28
2022-10-22T14:21:14.321Z,51.59
2022-10-22T14:23:45.025Z,51.47
2022-10-22T14:26:21.916Z,50.45
2022-10-22T14:29:08.689Z,51.38
2022-10-22T14:31:37.263Z,51.31
2022-10-22T14:36:48.506Z,51.66
2022-10-22T14:39:22.785Z,51.18
2022-10-22T14:41:52.020Z,51.47
2022-10-22T14:44:19.104Z,51.90
2022-10-22T14:46:46.976Z,52.06
2022-10-22T14:49:13.845Z,52.18
2022-10-22T14:51:42.536Z,52.27
2022-10-22T14:54:09.328Z,52.33
2022-10-22T14:56:47.073Z,52.04
2022-10-22T14:59:15.198Z,51.76
2022-10-22T15:01:43.098Z,51.80
2022-10-22T15:04:10.593Z,52.14
2022-10-22T15:06:37.958Z,52.29
2022-10-22T15:11:47.774Z,52.70
2022-10-22T15:17:10.102Z,52.76
2022-10-22T15:19:36.844Z,52.78
2022-10-22T15:22:08.253Z,52.70
2022-10-22T15:24:35.181Z,52.33
2022-10-22T15:27:03.630Z,52.31
2022-10-22T15:29:30.571Z,52.38
2022-10-22T15:31:59.302Z,52.15
2022-10-22T15:34:29.538Z,52.24
2022-10-22T15:36:58.519Z,52.54
2022-10-22T15:39:25.961Z,52.70
2022-10-22T15:41:55.652Z,52.58
2022-10-22T15:44:24.498Z,52.36
2022-10-22T15:46:52.034Z,52.48
2022-10-22T15:49:19.224Z,52.77
2022-10-22T15:51:50.667Z,52.92
2022-10-22T15:54:19.783Z,53.05
2022-10-22T15:56:46.984Z,53.24
2022-10-22T15:59:15.950Z,53.66
2022-10-22T16:04:25.249Z,53.92
2022-10-22T16:06:55.547Z,53.61
2022-10-22T16:09:28.749Z,53.65
2022-10-22T16:11:55.856Z,53.85
2022-10-22T16:14:24.181Z,53.92
2022-10-22T16:16:53.310Z,53.72
2022-10-22T16:19:22.278Z,53.95
2022-10-22T16:21:50.849Z,54.03
2022-10-22T16:24:19.525Z,54.34
2022-10-22T16:26:46.519Z,54.68
2022-10-22T16:29:13.534Z,55.14
2022-10-22T16:31:42.756Z,55.31
2022-10-22T16:34:09.948Z,55.13
2022-10-22T16:36:37.253Z,55.40
2022-10-22T16:39:05.043Z,55.69
2022-10-22T16:41:35.055Z,56.02
2022-10-22T16:44:03.618Z,56.43
2022-10-22T16:46:31.224Z,56.91
2022-10-22T16:48:58.873Z,57.00
2022-10-22T16:51:27.257Z,57.06
2022-10-22T16:53:55.207Z,57.79
2022-10-22T16:56:22.193Z,57.67
2022-10-22T16:58:52.450Z,57.87
2022-10-22T17:01:20.738Z,57.98
2022-10-22T17:03:47.472Z,58.22
2022-10-22T17:06:14.792Z,58.50
2022-10-22T17:08:42.429Z,58.60
2022-10-22T17:11:10.989Z,58.89
2022-10-22T17:13:38.085Z,58.66
2022-10-22T17:16:08.883Z,58.66
2022-10-22T17:18:37.781Z,58.70
2022-10-22T17:21:04.707Z,58.59
2022-10-22T17:23:31.543Z,59.05
2022-10-22T17:25:59.780Z,59.13
2022-10-22T17:28:27.214Z,59.15
2022-10-22T17:31:02.584Z,60.03
2022-10-22T17:33:31.508Z,60.13
2022-10-22T17:35:59.182Z,60.15
2022-10-22T17:38:26.065Z,60.44
2022-10-22T17:40:52.825Z,60.77
2022-10-22T17:43:19.707Z,61.08
2022-10-22T17:45:46.389Z,61.39
2022-10-22T17:48:13.053Z,61.45
2022-10-22T17:50:42.776Z,61.67
2022-10-22T17:53:11.206Z,61.76
2022-10-22T17:55:37.809Z,61.75
2022-10-22T17:58:04.541Z,61.49
2022-10-22T18:00:33.283Z,60.34
2022-10-22T18:03:01.148Z,60.67
2022-10-22T18:05:28.101Z,60.43
2022-10-22T18:07:57.410Z,61.00
2022-10-22T18:10:24.608Z,61.07
2022-10-22T18:12:51.250Z,61.29
2022-10-22T18:15:17.935Z,61.96
2022-10-22T18:17:46.960Z,62.54
2022-10-22T18:20:13.733Z,62.09
2022-10-22T18:22:42.159Z,62.55
2022-10-22T18:25:11.776Z,62.84
2022-10-22T18:27:38.965Z,62.53
2022-10-22T18:30:07.210Z,62.62
2022-10-22T18:32:34.106Z,62.89
2022-10-22T18:35:00.849Z,62.96
2022-10-22T18:37:27.705Z,62.75
2022-10-22T18:39:54.334Z,62.83
2022-10-22T18:42:22.401Z,62.08
2022-10-22T18:44:50.838Z,62.02
2022-10-22T18:47:17.491Z,61.90
2022-10-22T18:49:44.291Z,61.69
2022-10-22T18:52:11.602Z,62.22
2022-10-22T18:54:38.374Z,62.55
2022-10-22T18:57:05.212Z,62.46
2022-10-22T18:59:33.302Z,62.59
2022-10-22T19:02:00.334Z,62.22
2022-10-22T19:04:36.537Z,62.27
2022-10-22T19:07:03.243Z,61.91
2022-10-22T19:09:30.105Z,62.26
2022-10-22T19:11:56.802Z,62.86
2022-10-22T19:14:23.468Z,62.94
2022-10-22T19:16:51.849Z,63.36
2022-10-22T19:19:21.187Z,63.55
2022-10-22T19:21:48.692Z,62.84
2022-10-22T19:24:16.526Z,63.17
2022-10-22T19:26:43.645Z,62.74
2022-10-22T19:29:11.011Z,63.42
2022-10-22T19:31:38.144Z,63.38
2022-10-22T19:34:06.776Z,63.67
2022-10-22T19:36:34.438Z,63.76
2022-10-22T19:39:02.336Z,63.21
2022-10-22T19:41:31.381Z,63.12
2022-10-22T19:43:59.397Z,63.44
2022-10-22T19:46:28.253Z,63.09
2022-10-22T19:48:57.265Z,63.38
2022-10-22T19:51:27.524Z,63.61
2022-10-22T19:53:58.820Z,63.51
2022-10-22T19:56:25.614Z,63.99
2022-10-22T19:58:52.868Z,63.92
2022-10-22T20:01:20.236Z,63.64
2022-10-22T20:03:47.183Z,63.21
2022-10-22T20:06:15.025Z,62.73
2022-10-22T20:08:43.985Z,62.61
2022-10-22T20:11:12.160Z,62.71
2022-10-22T20:16:11.897Z,63.41
2022-10-22T20:18:38.986Z,63.72
2022-10-22T20:21:06.794Z,63.72
2022-10-22T20:23:34.199Z,63.84
2022-10-22T20:26:02.457Z,63.47
2022-10-22T20:28:29.119Z,63.70
2022-10-22T20:30:56.016Z,63.68
2022-10-22T20:33:22.892Z,63.12
2022-10-22T20:35:58.305Z,63.60
2022-10-22T20:38:25.213Z,63.36
2022-10-22T20:40:59.891Z,64.06
2022-10-22T20:43:28.029Z,63.72
2022-10-22T20:45:54.946Z,63.82
2022-10-22T20:48:22.944Z,63.46
2022-10-22T20:50:49.679Z,63.59
2022-10-22T20:53:16.998Z,63.52
2022-10-22T20:55:43.821Z,63.65
2022-10-22T20:58:10.709Z,63.84
2022-10-22T21:00:39.869Z,63.82
2022-10-22T21:03:06.557Z,63.96
2022-10-22T21:05:34.666Z,63.63
2022-10-22T21:08:02.384Z,63.41
2022-10-22T21:10:32.468Z,63.33
2022-10-22T21:13:00.307Z,63.19
2022-10-22T21:15:27.883Z,63.52
2022-10-22T21:17:56.056Z,63.69
2022-10-22T21:20:24.772Z,64.07
2022-10-22T21:22:51.861Z,63.86
2022-10-22T21:25:18.801Z,63.89
2022-10-22T21:27:45.530Z,63.82
2022-10-22T21:30:12.584Z,63.59
2022-10-22T21:32:39.443Z,63.12
2022-10-22T21:35:09.222Z,63.30
2022-10-22T21:37:36.012Z,63.19
2022-10-22T21:40:04.366Z,63.19
2022-10-22T21:42:31.191Z,63.31
2022-10-22T21:44:57.951Z,63.01
2022-10-22T21:47:24.889Z,63.07
2022-10-22T21:49:51.658Z,62.78
2022-10-22T21:52:19.840Z,62.93
2022-10-22T21:54:46.860Z,63.07
2022-10-22T21:57:13.793Z,63.69
2022-10-22T21:59:40.748Z,63.86
2022-10-22T22:02:09.480Z,64.32
2022-10-22T22:04:36.221Z,64.42
2022-10-22T22:07:03.475Z,64.22
2022-10-22T22:09:31.933Z,63.86
2022-10-22T22:11:58.589Z,63.79
2022-10-22T22:14:25.370Z,63.69
2022-10-22T22:16:52.441Z,63.86
2022-10-22T22:19:19.112Z,63.72
2022-10-22T22:21:45.916Z,63.57
2022-10-22T22:24:13.137Z,63.80
2022-10-22T22:26:41.398Z,63.80
2022-10-22T22:29:08.409Z,63.92
2022-10-22T22:31:37.267Z,64.42
2022-10-22T22:34:05.715Z,64.73
2022-10-22T22:36:34.052Z,64.39
2022-10-22T22:39:00.694Z,64.63
2022-10-22T22:41:27.381Z,64.37
2022-10-22T22:46:27.182Z,64.30
2022-10-22T22:48:54.519Z,64.03
2022-10-22T22:51:21.550Z,63.97
2022-10-22T22:53:48.271Z,64.22
2022-10-22T22:56:17.186Z,64.29
2022-10-22T22:58:44.486Z,64.76
2022-10-22T23:01:15.897Z,65.20
2022-10-22T23:03:44.234Z,65.33
2022-10-22T23:06:11.612Z,65.80
2022-10-22T23:08:39.575Z,65.75
2022-10-22T23:11:08.348Z,65.56
2022-10-22T23:13:36.127Z,65.31
2022-10-22T23:16:05.877Z,65.13
2022-10-22T23:18:35.310Z,64.86
2022-10-22T23:21:05.533Z,64.80
2022-10-22T23:23:33.434Z,64.84
2022-10-22T23:26:00.248Z,64.46
2022-10-22T23:28:27.186Z,64.77
2022-10-22T23:30:53.867Z,64.89
2022-10-22T23:33:20.569Z,65.00
2022-10-22T23:35:48.604Z,64.95
2022-10-22T23:38:15.318Z,65.05
2022-10-22T23:40:42.100Z,64.81
2022-10-22T23:43:08.733Z,65.01
2022-10-22T23:45:35.505Z,64.76
2022-10-22T23:48:02.416Z,64.03
2022-10-22T23:50:29.122Z,63.90
2022-10-22T23:52:57.150Z,64.28
2022-10-22T23:55:24.001Z,64.58
2022-10-22T23:57:50.728Z,64.83
